sensor_id;sensor_type;location;lat;lon;timestamp;P1;durP1;ratioP1;P2;durP2;ratioP2
12703;SDS011;6416;52.182;7.650;2023-11-21T00:00:10;5.60;;;4.10;;
12703;SDS011;6416;52.182;7.650;2023-11-21T00:02:36;7.30;;;3.80;;
12703;SDS011;6416;52.182;7.650;2023-11-21T00:05:01;4.70;;;4.00;;
12703;SDS011;6416;52.182;7.650;2023-11-21T00:07:27;5.97;;;4.27;;
12703;SDS011;6416;52.182;7.650;2023-11-21T00:09:52;6.27;;;4.63;;
12703;SDS011;6416;52.182;7.650;2023-11-21T00:12:17;5.77;;;4.33;;
12703;SDS011;6416;52.182;7.650;2023-11-21T00:14:43;5.03;;;4.47;;
12703;SDS011;6416;52.182;7.650;2023-11-21T00:17:08;6.70;;;4.60;;
12703;SDS011;6416;52.182;7.650;2023-11-21T00:19:34;6.87;;;4.73;;
12703;SDS011;6416;52.182;7.650;2023-11-21T00:21:59;8.00;;;5.07;;
12703;SDS011;6416;52.182;7.650;2023-11-21T00:24:25;6.83;;;5.47;;
12703;SDS011;6416;52.182;7.650;2023-11-21T00:26:50;7.00;;;4.70;;
12703;SDS011;6416;52.182;7.650;2023-11-21T00:29:16;6.33;;;4.97;;
12703;SDS011;6416;52.182;7.650;2023-11-21T00:31:42;7.30;;;4.57;;
12703;SDS011;6416;52.182;7.650;2023-11-21T00:34:07;5.93;;;4.53;;
12703;SDS011;6416;52.182;7.650;2023-11-21T00:36:33;5.20;;;4.37;;
12703;SDS011;6416;52.182;7.650;2023-11-21T00:38:58;4.70;;;4.30;;
12703;SDS011;6416;52.182;7.650;2023-11-21T00:41:24;5.87;;;4.23;;
12703;SDS011;6416;52.182;7.650;2023-11-21T00:43:50;7.60;;;4.57;;
12703;SDS011;6416;52.182;7.650;2023-11-21T00:46:15;6.00;;;4.50;;
12703;SDS011;6416;52.182;7.650;2023-11-21T00:48:41;5.53;;;4.30;;
12703;SDS011;6416;52.182;7.650;2023-11-21T00:51:09;5.33;;;4.23;;
12703;SDS011;6416;52.182;7.650;2023-11-21T00:53:34;5.60;;;4.23;;
12703;SDS011;6416;52.182;7.650;2023-11-21T00:56:00;4.43;;;3.90;;
12703;SDS011;6416;52.182;7.650;2023-11-21T00:58:25;8.23;;;4.97;;
12703;SDS011;6416;52.182;7.650;2023-11-21T01:00:51;6.07;;;4.33;;
12703;SDS011;6416;52.182;7.650;2023-11-21T01:03:17;7.03;;;4.73;;
12703;SDS011;6416;52.182;7.650;2023-11-21T01:05:42;5.63;;;5.00;;
12703;SDS011;6416;52.182;7.650;2023-11-21T01:08:08;6.23;;;5.63;;
12703;SDS011;6416;52.182;7.650;2023-11-21T01:10:33;9.03;;;5.43;;
12703;SDS011;6416;52.182;7.650;2023-11-21T01:12:59;9.80;;;5.83;;
12703;SDS011;6416;52.182;7.650;2023-11-21T01:15:24;9.67;;;6.67;;
12703;SDS011;6416;52.182;7.650;2023-11-21T01:17:50;7.13;;;6.20;;
12703;SDS011;6416;52.182;7.650;2023-11-21T01:20:15;8.90;;;7.50;;
12703;SDS011;6416;52.182;7.650;2023-11-21T01:22:41;11.00;;;8.20;;
12703;SDS011;6416;52.182;7.650;2023-11-21T01:25:06;8.40;;;7.33;;
12703;SDS011;6416;52.182;7.650;2023-11-21T01:27:32;7.87;;;6.83;;
12703;SDS011;6416;52.182;7.650;2023-11-21T01:29:58;7.17;;;6.47;;
12703;SDS011;6416;52.182;7.650;2023-11-21T01:32:23;8.47;;;7.10;;
12703;SDS011;6416;52.182;7.650;2023-11-21T01:34:49;10.77;;;6.23;;
12703;SDS011;6416;52.182;7.650;2023-11-21T01:37:15;8.80;;;6.83;;
12703;SDS011;6416;52.182;7.650;2023-11-21T01:39:41;9.27;;;7.43;;
12703;SDS011;6416;52.182;7.650;2023-11-21T01:42:06;8.90;;;7.30;;
12703;SDS011;6416;52.182;7.650;2023-11-21T01:44:32;12.63;;;7.80;;
12703;SDS011;6416;52.182;7.650;2023-11-21T01:46:57;9.30;;;7.27;;
12703;SDS011;6416;52.182;7.650;2023-11-21T01:49:23;10.93;;;7.17;;
12703;SDS011;6416;52.182;7.650;2023-11-21T01:51:49;12.30;;;7.60;;
12703;SDS011;6416;52.182;7.650;2023-11-21T01:54:16;11.47;;;7.80;;
12703;SDS011;6416;52.182;7.650;2023-11-21T01:56:46;8.37;;;7.43;;
12703;SDS011;6416;52.182;7.650;2023-11-21T01:59:12;9.30;;;8.07;;
12703;SDS011;6416;52.182;7.650;2023-11-21T02:01:42;9.93;;;7.33;;
12703;SDS011;6416;52.182;7.650;2023-11-21T02:04:08;9.53;;;7.53;;
12703;SDS011;6416;52.182;7.650;2023-11-21T02:06:33;8.33;;;7.10;;
12703;SDS011;6416;52.182;7.650;2023-11-21T02:08:59;10.80;;;7.53;;
12703;SDS011;6416;52.182;7.650;2023-11-21T02:11:24;7.57;;;6.40;;
12703;SDS011;6416;52.182;7.650;2023-11-21T02:13:50;9.73;;;6.80;;
12703;SDS011;6416;52.182;7.650;2023-11-21T02:16:15;8.10;;;7.20;;
12703;SDS011;6416;52.182;7.650;2023-11-21T02:18:41;6.93;;;6.27;;
12703;SDS011;6416;52.182;7.650;2023-11-21T02:21:06;10.57;;;6.77;;
12703;SDS011;6416;52.182;7.650;2023-11-21T02:23:31;8.47;;;6.80;;
12703;SDS011;6416;52.182;7.650;2023-11-21T02:25:57;8.50;;;7.50;;
12703;SDS011;6416;52.182;7.650;2023-11-21T02:28:23;9.33;;;7.30;;
12703;SDS011;6416;52.182;7.650;2023-11-21T02:30:48;8.93;;;7.33;;
12703;SDS011;6416;52.182;7.650;2023-11-21T02:33:14;8.17;;;7.03;;
12703;SDS011;6416;52.182;7.650;2023-11-21T02:35:39;7.87;;;6.83;;
12703;SDS011;6416;52.182;7.650;2023-11-21T02:38:05;7.90;;;6.83;;
12703;SDS011;6416;52.182;7.650;2023-11-21T02:40:30;10.87;;;6.93;;
12703;SDS011;6416;52.182;7.650;2023-11-21T02:42:55;11.50;;;8.07;;
12703;SDS011;6416;52.182;7.650;2023-11-21T02:45:21;12.07;;;8.10;;
12703;SDS011;6416;52.182;7.650;2023-11-21T02:47:47;9.17;;;7.77;;
12703;SDS011;6416;52.182;7.650;2023-11-21T02:50:13;10.13;;;7.70;;
12703;SDS011;6416;52.182;7.650;2023-11-21T02:52:41;8.07;;;7.27;;
12703;SDS011;6416;52.182;7.650;2023-11-21T02:55:07;9.60;;;7.27;;
12703;SDS011;6416;52.182;7.650;2023-11-21T02:57:33;7.60;;;6.87;;
12703;SDS011;6416;52.182;7.650;2023-11-21T02:59:58;8.43;;;7.03;;
12703;SDS011;6416;52.182;7.650;2023-11-21T03:02:24;10.07;;;7.27;;
12703;SDS011;6416;52.182;7.650;2023-11-21T03:04:50;11.67;;;7.17;;
12703;SDS011;6416;52.182;7.650;2023-11-21T03:07:16;12.93;;;8.23;;
12703;SDS011;6416;52.182;7.650;2023-11-21T03:09:41;8.80;;;7.90;;
12703;SDS011;6416;52.182;7.650;2023-11-21T03:12:07;14.27;;;7.73;;
12703;SDS011;6416;52.182;7.650;2023-11-21T03:14:33;10.70;;;8.00;;
12703;SDS011;6416;52.182;7.650;2023-11-21T03:16:58;10.33;;;7.90;;
12703;SDS011;6416;52.182;7.650;2023-11-21T03:19:24;10.70;;;7.30;;
12703;SDS011;6416;52.182;7.650;2023-11-21T03:21:49;9.43;;;7.37;;
12703;SDS011;6416;52.182;7.650;2023-11-21T03:24:15;8.17;;;7.27;;
12703;SDS011;6416;52.182;7.650;2023-11-21T03:26:40;8.80;;;6.90;;
12703;SDS011;6416;52.182;7.650;2023-11-21T03:29:06;9.53;;;8.20;;
12703;SDS011;6416;52.182;7.650;2023-11-21T03:31:31;11.33;;;8.83;;
12703;SDS011;6416;52.182;7.650;2023-11-21T03:33:57;10.43;;;8.97;;
12703;SDS011;6416;52.182;7.650;2023-11-21T03:36:22;12.50;;;9.77;;
12703;SDS011;6416;52.182;7.650;2023-11-21T03:38:48;15.37;;;10.10;;
12703;SDS011;6416;52.182;7.650;2023-11-21T03:41:13;14.33;;;10.13;;
12703;SDS011;6416;52.182;7.650;2023-11-21T03:43:39;13.13;;;9.93;;
12703;SDS011;6416;52.182;7.650;2023-11-21T03:46:04;12.97;;;10.20;;
12703;SDS011;6416;52.182;7.650;2023-11-21T03:48:30;13.57;;;9.77;;
12703;SDS011;6416;52.182;7.650;2023-11-21T03:50:55;14.60;;;11.17;;
12703;SDS011;6416;52.182;7.650;2023-11-21T03:53:21;11.10;;;9.03;;
12703;SDS011;6416;52.182;7.650;2023-11-21T03:55:46;13.13;;;9.73;;
12703;SDS011;6416;52.182;7.650;2023-11-21T03:58:12;13.63;;;10.23;;
12703;SDS011;6416;52.182;7.650;2023-11-21T04:00:37;14.23;;;10.77;;
12703;SDS011;6416;52.182;7.650;2023-11-21T04:03:03;12.30;;;9.17;;
12703;SDS011;6416;52.182;7.650;2023-11-21T04:05:28;14.90;;;10.33;;
12703;SDS011;6416;52.182;7.650;2023-11-21T04:07:54;13.10;;;9.57;;
12703;SDS011;6416;52.182;7.650;2023-11-21T04:10:19;11.87;;;9.17;;
12703;SDS011;6416;52.182;7.650;2023-11-21T04:12:45;12.53;;;9.87;;
12703;SDS011;6416;52.182;7.650;2023-11-21T04:15:10;13.97;;;9.30;;
12703;SDS011;6416;52.182;7.650;2023-11-21T04:17:36;12.50;;;10.23;;
12703;SDS011;6416;52.182;7.650;2023-11-21T04:20:02;13.90;;;10.03;;
12703;SDS011;6416;52.182;7.650;2023-11-21T04:22:29;11.97;;;9.90;;
12703;SDS011;6416;52.182;7.650;2023-11-21T04:24:54;11.27;;;9.83;;
12703;SDS011;6416;52.182;7.650;2023-11-21T04:27:20;12.93;;;9.47;;
12703;SDS011;6416;52.182;7.650;2023-11-21T04:29:45;15.27;;;10.13;;
12703;SDS011;6416;52.182;7.650;2023-11-21T04:32:11;12.83;;;10.00;;
12703;SDS011;6416;52.182;7.650;2023-11-21T04:34:36;13.40;;;8.97;;
12703;SDS011;6416;52.182;7.650;2023-11-21T04:37:02;9.80;;;8.70;;
12703;SDS011;6416;52.182;7.650;2023-11-21T04:39:27;13.17;;;9.63;;
12703;SDS011;6416;52.182;7.650;2023-11-21T04:41:53;10.50;;;9.20;;
12703;SDS011;6416;52.182;7.650;2023-11-21T04:44:18;14.03;;;9.43;;
12703;SDS011;6416;52.182;7.650;2023-11-21T04:46:44;17.57;;;10.43;;
12703;SDS011;6416;52.182;7.650;2023-11-21T04:49:09;12.70;;;9.93;;
12703;SDS011;6416;52.182;7.650;2023-11-21T04:51:34;16.50;;;9.97;;
12703;SDS011;6416;52.182;7.650;2023-11-21T04:54:00;14.40;;;9.87;;
12703;SDS011;6416;52.182;7.650;2023-11-21T04:56:25;12.40;;;10.30;;
12703;SDS011;6416;52.182;7.650;2023-11-21T04:58:51;17.23;;;10.60;;
12703;SDS011;6416;52.182;7.650;2023-11-21T05:01:17;20.17;;;11.70;;
12703;SDS011;6416;52.182;7.650;2023-11-21T05:03:43;18.47;;;10.97;;
12703;SDS011;6416;52.182;7.650;2023-11-21T05:06:11;17.03;;;11.47;;
12703;SDS011;6416;52.182;7.650;2023-11-21T05:08:37;19.90;;;11.37;;
12703;SDS011;6416;52.182;7.650;2023-11-21T05:11:02;14.67;;;10.37;;
12703;SDS011;6416;52.182;7.650;2023-11-21T05:13:28;17.67;;;10.77;;
12703;SDS011;6416;52.182;7.650;2023-11-21T05:15:56;18.07;;;11.23;;
12703;SDS011;6416;52.182;7.650;2023-11-21T05:18:22;17.60;;;11.20;;
12703;SDS011;6416;52.182;7.650;2023-11-21T05:20:47;22.13;;;12.10;;
12703;SDS011;6416;52.182;7.650;2023-11-21T05:23:13;21.20;;;12.50;;
12703;SDS011;6416;52.182;7.650;2023-11-21T05:25:38;18.63;;;11.30;;
12703;SDS011;6416;52.182;7.650;2023-11-21T05:28:04;18.00;;;11.30;;
12703;SDS011;6416;52.182;7.650;2023-11-21T05:30:29;21.10;;;11.67;;
12703;SDS011;6416;52.182;7.650;2023-11-21T05:32:55;17.53;;;11.20;;
12703;SDS011;6416;52.182;7.650;2023-11-21T05:35:20;16.30;;;11.73;;
12703;SDS011;6416;52.182;7.650;2023-11-21T05:37:46;16.77;;;11.43;;
12703;SDS011;6416;52.182;7.650;2023-11-21T05:40:11;17.77;;;11.47;;
12703;SDS011;6416;52.182;7.650;2023-11-21T05:42:37;19.63;;;11.80;;
12703;SDS011;6416;52.182;7.650;2023-11-21T05:45:03;22.53;;;13.53;;
12703;SDS011;6416;52.182;7.650;2023-11-21T05:47:29;19.20;;;12.53;;
12703;SDS011;6416;52.182;7.650;2023-11-21T05:49:55;19.40;;;12.90;;
12703;SDS011;6416;52.182;7.650;2023-11-21T05:52:20;17.20;;;12.27;;
12703;SDS011;6416;52.182;7.650;2023-11-21T05:54:45;17.97;;;12.23;;
12703;SDS011;6416;52.182;7.650;2023-11-21T05:57:11;19.40;;;11.33;;
12703;SDS011;6416;52.182;7.650;2023-11-21T05:59:36;21.67;;;13.10;;
12703;SDS011;6416;52.182;7.650;2023-11-21T06:02:02;18.53;;;12.43;;
12703;SDS011;6416;52.182;7.650;2023-11-21T06:04:27;20.47;;;12.27;;
12703;SDS011;6416;52.182;7.650;2023-11-21T06:06:53;20.07;;;12.90;;
12703;SDS011;6416;52.182;7.650;2023-11-21T06:09:18;23.90;;;12.77;;
12703;SDS011;6416;52.182;7.650;2023-11-21T06:11:44;23.63;;;13.03;;
12703;SDS011;6416;52.182;7.650;2023-11-21T06:14:09;21.53;;;12.80;;
12703;SDS011;6416;52.182;7.650;2023-11-21T06:16:35;22.67;;;13.60;;
12703;SDS011;6416;52.182;7.650;2023-11-21T06:19:03;20.37;;;13.57;;
12703;SDS011;6416;52.182;7.650;2023-11-21T06:21:28;24.07;;;14.57;;
12703;SDS011;6416;52.182;7.650;2023-11-21T06:23:54;19.23;;;11.97;;
12703;SDS011;6416;52.182;7.650;2023-11-21T06:26:19;23.90;;;13.53;;
12703;SDS011;6416;52.182;7.650;2023-11-21T06:28:45;22.13;;;14.00;;
12703;SDS011;6416;52.182;7.650;2023-11-21T06:31:10;19.37;;;13.13;;
12703;SDS011;6416;52.182;7.650;2023-11-21T06:33:36;22.50;;;14.00;;
12703;SDS011;6416;52.182;7.650;2023-11-21T06:36:01;23.83;;;13.60;;
12703;SDS011;6416;52.182;7.650;2023-11-21T06:38:27;21.93;;;13.37;;
12703;SDS011;6416;52.182;7.650;2023-11-21T06:40:52;23.60;;;13.77;;
12703;SDS011;6416;52.182;7.650;2023-11-21T06:43:18;21.40;;;13.73;;
12703;SDS011;6416;52.182;7.650;2023-11-21T06:45:43;18.80;;;13.90;;
12703;SDS011;6416;52.182;7.650;2023-11-21T06:48:09;20.13;;;13.43;;
12703;SDS011;6416;52.182;7.650;2023-11-21T06:50:34;22.13;;;13.80;;
12703;SDS011;6416;52.182;7.650;2023-11-21T06:52:59;21.60;;;13.70;;
12703;SDS011;6416;52.182;7.650;2023-11-21T06:55:25;27.40;;;14.30;;
12703;SDS011;6416;52.182;7.650;2023-11-21T06:57:50;24.43;;;15.57;;
12703;SDS011;6416;52.182;7.650;2023-11-21T07:00:16;28.20;;;16.63;;
12703;SDS011;6416;52.182;7.650;2023-11-21T07:02:42;24.03;;;14.83;;
12703;SDS011;6416;52.182;7.650;2023-11-21T07:05:08;24.33;;;15.33;;
12703;SDS011;6416;52.182;7.650;2023-11-21T07:07:33;22.40;;;14.30;;
12703;SDS011;6416;52.182;7.650;2023-11-21T07:09:59;28.17;;;15.77;;
12703;SDS011;6416;52.182;7.650;2023-11-21T07:12:24;25.37;;;16.10;;
12703;SDS011;6416;52.182;7.650;2023-11-21T07:14:50;27.07;;;16.40;;
12703;SDS011;6416;52.182;7.650;2023-11-21T07:17:15;22.13;;;13.73;;
12703;SDS011;6416;52.182;7.650;2023-11-21T07:19:41;24.13;;;15.20;;
12703;SDS011;6416;52.182;7.650;2023-11-21T07:22:06;28.97;;;16.10;;
12703;SDS011;6416;52.182;7.650;2023-11-21T07:24:32;25.83;;;15.20;;
12703;SDS011;6416;52.182;7.650;2023-11-21T07:26:57;27.57;;;16.00;;
12703;SDS011;6416;52.182;7.650;2023-11-21T07:29:23;22.00;;;14.33;;
12703;SDS011;6416;52.182;7.650;2023-11-21T07:31:49;24.70;;;15.50;;
12703;SDS011;6416;52.182;7.650;2023-11-21T07:34:14;22.90;;;14.07;;
12703;SDS011;6416;52.182;7.650;2023-11-21T07:36:40;27.33;;;15.17;;
12703;SDS011;6416;52.182;7.650;2023-11-21T07:39:05;22.73;;;14.67;;
12703;SDS011;6416;52.182;7.650;2023-11-21T07:41:31;27.33;;;16.30;;
12703;SDS011;6416;52.182;7.650;2023-11-21T07:43:56;23.60;;;14.03;;
12703;SDS011;6416;52.182;7.650;2023-11-21T07:46:22;21.33;;;14.90;;
12703;SDS011;6416;52.182;7.650;2023-11-21T07:48:47;26.30;;;15.90;;
12703;SDS011;6416;52.182;7.650;2023-11-21T07:51:13;26.37;;;15.70;;
12703;SDS011;6416;52.182;7.650;2023-11-21T07:53:38;23.50;;;15.17;;
12703;SDS011;6416;52.182;7.650;2023-11-21T07:56:04;25.80;;;14.90;;
12703;SDS011;6416;52.182;7.650;2023-11-21T07:58:31;23.80;;;14.53;;
12703;SDS011;6416;52.182;7.650;2023-11-21T08:00:56;21.33;;;14.43;;
12703;SDS011;6416;52.182;7.650;2023-11-21T08:03:22;21.73;;;15.00;;
12703;SDS011;6416;52.182;7.650;2023-11-21T08:05:47;21.80;;;13.73;;
12703;SDS011;6416;52.182;7.650;2023-11-21T08:08:13;42.50;;;25.70;;
12703;SDS011;6416;52.182;7.650;2023-11-21T08:10:38;37.40;;;23.77;;
12703;SDS011;6416;52.182;7.650;2023-11-21T08:13:04;28.37;;;18.33;;
12703;SDS011;6416;52.182;7.650;2023-11-21T08:15:30;21.77;;;15.50;;
12703;SDS011;6416;52.182;7.650;2023-11-21T08:17:56;17.80;;;12.57;;
12703;SDS011;6416;52.182;7.650;2023-11-21T08:20:21;15.23;;;11.43;;
12703;SDS011;6416;52.182;7.650;2023-11-21T08:22:46;13.67;;;10.47;;
12703;SDS011;6416;52.182;7.650;2023-11-21T08:25:12;15.27;;;10.87;;
12703;SDS011;6416;52.182;7.650;2023-11-21T08:27:38;12.77;;;9.50;;
12703;SDS011;6416;52.182;7.650;2023-11-21T08:30:03;12.33;;;9.33;;
12703;SDS011;6416;52.182;7.650;2023-11-21T08:32:29;11.20;;;10.00;;
12703;SDS011;6416;52.182;7.650;2023-11-21T08:34:55;12.07;;;9.87;;
12703;SDS011;6416;52.182;7.650;2023-11-21T08:37:21;11.03;;;9.37;;
12703;SDS011;6416;52.182;7.650;2023-11-21T08:39:47;12.43;;;10.17;;
12703;SDS011;6416;52.182;7.650;2023-11-21T08:42:13;10.70;;;8.67;;
12703;SDS011;6416;52.182;7.650;2023-11-21T08:44:38;11.60;;;9.17;;
12703;SDS011;6416;52.182;7.650;2023-11-21T08:47:04;9.97;;;8.40;;
12703;SDS011;6416;52.182;7.650;2023-11-21T08:49:29;9.57;;;8.20;;
12703;SDS011;6416;52.182;7.650;2023-11-21T08:51:55;10.50;;;8.90;;
12703;SDS011;6416;52.182;7.650;2023-11-21T08:54:21;9.07;;;8.13;;
12703;SDS011;6416;52.182;7.650;2023-11-21T08:56:46;10.67;;;7.90;;
12703;SDS011;6416;52.182;7.650;2023-11-21T08:59:12;9.60;;;8.60;;
12703;SDS011;6416;52.182;7.650;2023-11-21T09:01:38;10.07;;;8.40;;
12703;SDS011;6416;52.182;7.650;2023-11-21T09:04:04;10.27;;;9.10;;
12703;SDS011;6416;52.182;7.650;2023-11-21T09:06:29;11.97;;;8.57;;
12703;SDS011;6416;52.182;7.650;2023-11-21T09:08:55;9.23;;;8.30;;
12703;SDS011;6416;52.182;7.650;2023-11-21T09:11:20;10.07;;;9.00;;
12703;SDS011;6416;52.182;7.650;2023-11-21T09:13:46;10.60;;;9.20;;
12703;SDS011;6416;52.182;7.650;2023-11-21T09:16:11;12.80;;;9.57;;
12703;SDS011;6416;52.182;7.650;2023-11-21T09:18:36;11.67;;;9.13;;
12703;SDS011;6416;52.182;7.650;2023-11-21T09:21:02;9.83;;;8.83;;
12703;SDS011;6416;52.182;7.650;2023-11-21T09:23:27;10.93;;;9.27;;
12703;SDS011;6416;52.182;7.650;2023-11-21T09:25:53;11.03;;;8.97;;
12703;SDS011;6416;52.182;7.650;2023-11-21T09:28:18;10.57;;;8.67;;
12703;SDS011;6416;52.182;7.650;2023-11-21T09:30:44;9.73;;;8.10;;
12703;SDS011;6416;52.182;7.650;2023-11-21T09:33:09;11.17;;;8.53;;
12703;SDS011;6416;52.182;7.650;2023-11-21T09:35:35;10.63;;;9.13;;
12703;SDS011;6416;52.182;7.650;2023-11-21T09:38:00;9.70;;;8.37;;
12703;SDS011;6416;52.182;7.650;2023-11-21T09:40:26;12.40;;;9.23;;
12703;SDS011;6416;52.182;7.650;2023-11-21T09:45:27;9.90;;;8.37;;
12703;SDS011;6416;52.182;7.650;2023-11-21T09:47:53;9.73;;;8.47;;
12703;SDS011;6416;52.182;7.650;2023-11-21T09:50:22;10.50;;;8.37;;
12703;SDS011;6416;52.182;7.650;2023-11-21T09:55:43;12.50;;;9.33;;
12703;SDS011;6416;52.182;7.650;2023-11-21T09:58:09;11.47;;;9.03;;
12703;SDS011;6416;52.182;7.650;2023-11-21T10:00:35;11.90;;;8.83;;
12703;SDS011;6416;52.182;7.650;2023-11-21T10:03:01;11.10;;;8.93;;
12703;SDS011;6416;52.182;7.650;2023-11-21T10:05:26;11.37;;;9.17;;
12703;SDS011;6416;52.182;7.650;2023-11-21T10:07:52;12.10;;;9.27;;
12703;SDS011;6416;52.182;7.650;2023-11-21T10:10:20;13.37;;;9.87;;
12703;SDS011;6416;52.182;7.650;2023-11-21T10:12:50;12.83;;;10.30;;
12703;SDS011;6416;52.182;7.650;2023-11-21T10:15:21;13.50;;;10.13;;
12703;SDS011;6416;52.182;7.650;2023-11-21T10:17:48;12.53;;;10.10;;
12703;SDS011;6416;52.182;7.650;2023-11-21T10:20:14;12.27;;;9.40;;
12703;SDS011;6416;52.182;7.650;2023-11-21T10:22:41;12.90;;;9.20;;
12703;SDS011;6416;52.182;7.650;2023-11-21T10:25:08;11.30;;;9.67;;
12703;SDS011;6416;52.182;7.650;2023-11-21T10:27:34;10.80;;;8.30;;
12703;SDS011;6416;52.182;7.650;2023-11-21T10:30:02;10.47;;;8.50;;
12703;SDS011;6416;52.182;7.650;2023-11-21T10:32:28;9.33;;;8.33;;
12703;SDS011;6416;52.182;7.650;2023-11-21T10:34:56;10.57;;;8.87;;
12703;SDS011;6416;52.182;7.650;2023-11-21T10:37:22;10.57;;;8.83;;
12703;SDS011;6416;52.182;7.650;2023-11-21T10:39:47;10.10;;;9.10;;
12703;SDS011;6416;52.182;7.650;2023-11-21T10:42:13;9.53;;;8.30;;
12703;SDS011;6416;52.182;7.650;2023-11-21T10:44:38;9.73;;;8.17;;
12703;SDS011;6416;52.182;7.650;2023-11-21T10:47:08;8.83;;;7.77;;
12703;SDS011;6416;52.182;7.650;2023-11-21T10:49:33;10.67;;;7.93;;
12703;SDS011;6416;52.182;7.650;2023-11-21T10:52:01;9.40;;;7.70;;
12703;SDS011;6416;52.182;7.650;2023-11-21T10:54:27;10.60;;;8.13;;
12703;SDS011;6416;52.182;7.650;2023-11-21T10:56:59;8.53;;;7.50;;
12703;SDS011;6416;52.182;7.650;2023-11-21T10:59:28;9.67;;;7.77;;
12703;SDS011;6416;52.182;7.650;2023-11-21T11:01:54;7.70;;;6.63;;
12703;SDS011;6416;52.182;7.650;2023-11-21T11:04:22;7.43;;;6.60;;
12703;SDS011;6416;52.182;7.650;2023-11-21T11:06:54;6.87;;;6.13;;
12703;SDS011;6416;52.182;7.650;2023-11-21T11:09:21;7.40;;;6.27;;
12703;SDS011;6416;52.182;7.650;2023-11-21T11:11:47;6.13;;;5.47;;
12703;SDS011;6416;52.182;7.650;2023-11-21T11:14:13;5.67;;;5.17;;
12703;SDS011;6416;52.182;7.650;2023-11-21T11:16:39;6.17;;;5.57;;
12703;SDS011;6416;52.182;7.650;2023-11-21T11:19:06;5.73;;;5.23;;
12703;SDS011;6416;52.182;7.650;2023-11-21T11:21:37;6.23;;;5.53;;
12703;SDS011;6416;52.182;7.650;2023-11-21T11:27:05;5.43;;;4.67;;
12703;SDS011;6416;52.182;7.650;2023-11-21T11:34:52;4.33;;;3.93;;
12703;SDS011;6416;52.182;7.650;2023-11-21T11:37:25;4.47;;;4.07;;
12703;SDS011;6416;52.182;7.650;2023-11-21T11:39:51;4.73;;;4.33;;
12703;SDS011;6416;52.182;7.650;2023-11-21T11:42:17;4.53;;;4.13;;
12703;SDS011;6416;52.182;7.650;2023-11-21T11:47:13;4.80;;;4.40;;
12703;SDS011;6416;52.182;7.650;2023-11-21T11:49:47;4.90;;;4.50;;
12703;SDS011;6416;52.182;7.650;2023-11-21T11:52:32;5.00;;;4.57;;
12703;SDS011;6416;52.182;7.650;2023-11-21T11:55:09;5.27;;;4.77;;
12703;SDS011;6416;52.182;7.650;2023-11-21T11:57:36;5.70;;;5.20;;
12703;SDS011;6416;52.182;7.650;2023-11-21T12:02:38;6.70;;;5.40;;
12703;SDS011;6416;52.182;7.650;2023-11-21T12:05:22;7.30;;;6.60;;
12703;SDS011;6416;52.182;7.650;2023-11-21T12:07:52;6.83;;;6.17;;
12703;SDS011;6416;52.182;7.650;2023-11-21T12:10:20;8.70;;;7.73;;
12703;SDS011;6416;52.182;7.650;2023-11-21T12:12:48;8.83;;;7.93;;
12703;SDS011;6416;52.182;7.650;2023-11-21T12:15:14;8.27;;;7.47;;
12703;SDS011;6416;52.182;7.650;2023-11-21T12:17:43;8.40;;;7.60;;
12703;SDS011;6416;52.182;7.650;2023-11-21T12:20:10;7.80;;;7.10;;
12703;SDS011;6416;52.182;7.650;2023-11-21T12:22:36;7.20;;;6.60;;
12703;SDS011;6416;52.182;7.650;2023-11-21T12:25:02;7.07;;;6.37;;
12703;SDS011;6416;52.182;7.650;2023-11-21T12:27:27;7.60;;;6.40;;
12703;SDS011;6416;52.182;7.650;2023-11-21T12:29:53;8.00;;;7.20;;
12703;SDS011;6416;52.182;7.650;2023-11-21T12:32:18;7.60;;;6.90;;
12703;SDS011;6416;52.182;7.650;2023-11-21T12:34:44;7.60;;;6.90;;
12703;SDS011;6416;52.182;7.650;2023-11-21T12:37:09;9.17;;;7.77;;
12703;SDS011;6416;52.182;7.650;2023-11-21T12:39:35;7.53;;;6.70;;
12703;SDS011;6416;52.182;7.650;2023-11-21T12:42:00;7.57;;;6.87;;
12703;SDS011;6416;52.182;7.650;2023-11-21T12:44:27;7.37;;;6.67;;
12703;SDS011;6416;52.182;7.650;2023-11-21T12:46:52;8.10;;;6.90;;
12703;SDS011;6416;52.182;7.650;2023-11-21T12:49:17;6.97;;;6.30;;
12703;SDS011;6416;52.182;7.650;2023-11-21T12:51:46;7.80;;;7.10;;
12703;SDS011;6416;52.182;7.650;2023-11-21T12:54:12;8.10;;;7.30;;
12703;SDS011;6416;52.182;7.650;2023-11-21T12:56:38;8.77;;;7.97;;
12703;SDS011;6416;52.182;7.650;2023-11-21T12:59:04;8.77;;;7.97;;
12703;SDS011;6416;52.182;7.650;2023-11-21T13:01:30;8.83;;;8.03;;
12703;SDS011;6416;52.182;7.650;2023-11-21T13:03:56;8.67;;;7.87;;
12703;SDS011;6416;52.182;7.650;2023-11-21T13:06:25;8.63;;;7.83;;
12703;SDS011;6416;52.182;7.650;2023-11-21T13:08:51;8.97;;;8.07;;
12703;SDS011;6416;52.182;7.650;2023-11-21T13:11:16;9.13;;;8.20;;
12703;SDS011;6416;52.182;7.650;2023-11-21T13:13:42;8.27;;;7.47;;
12703;SDS011;6416;52.182;7.650;2023-11-21T13:16:08;8.40;;;7.60;;
12703;SDS011;6416;52.182;7.650;2023-11-21T13:18:34;8.80;;;7.97;;
12703;SDS011;6416;52.182;7.650;2023-11-21T13:21:01;8.27;;;7.47;;
12703;SDS011;6416;52.182;7.650;2023-11-21T13:23:28;8.07;;;7.37;;
12703;SDS011;6416;52.182;7.650;2023-11-21T13:25:54;8.80;;;7.03;;
12703;SDS011;6416;52.182;7.650;2023-11-21T13:28:19;7.93;;;7.13;;
12703;SDS011;6416;52.182;7.650;2023-11-21T13:30:45;6.73;;;6.13;;
12703;SDS011;6416;52.182;7.650;2023-11-21T13:33:10;6.73;;;6.13;;
12703;SDS011;6416;52.182;7.650;2023-11-21T13:35:36;6.80;;;6.20;;
12703;SDS011;6416;52.182;7.650;2023-11-21T13:38:13;7.07;;;6.27;;
12703;SDS011;6416;52.182;7.650;2023-11-21T13:40:46;6.13;;;5.63;;
12703;SDS011;6416;52.182;7.650;2023-11-21T13:43:13;6.60;;;6.00;;
12703;SDS011;6416;52.182;7.650;2023-11-21T13:45:39;7.43;;;6.73;;
12703;SDS011;6416;52.182;7.650;2023-11-21T13:48:06;6.37;;;5.80;;
12703;SDS011;6416;52.182;7.650;2023-11-21T13:50:32;5.73;;;5.23;;
12703;SDS011;6416;52.182;7.650;2023-11-21T13:52:58;5.57;;;5.07;;
12703;SDS011;6416;52.182;7.650;2023-11-21T13:55:23;6.33;;;5.70;;
12703;SDS011;6416;52.182;7.650;2023-11-21T13:57:49;5.80;;;5.30;;
12703;SDS011;6416;52.182;7.650;2023-11-21T14:00:17;5.80;;;5.20;;
12703;SDS011;6416;52.182;7.650;2023-11-21T14:02:43;5.77;;;5.17;;
12703;SDS011;6416;52.182;7.650;2023-11-21T14:05:09;5.47;;;4.97;;
12703;SDS011;6416;52.182;7.650;2023-11-21T14:07:34;5.57;;;5.07;;
12703;SDS011;6416;52.182;7.650;2023-11-21T14:10:00;6.30;;;5.50;;
12703;SDS011;6416;52.182;7.650;2023-11-21T14:12:28;6.20;;;5.60;;
12703;SDS011;6416;52.182;7.650;2023-11-21T14:14:54;6.13;;;5.37;;
12703;SDS011;6416;52.182;7.650;2023-11-21T14:17:19;6.20;;;5.60;;
12703;SDS011;6416;52.182;7.650;2023-11-21T14:19:45;5.30;;;4.87;;
12703;SDS011;6416;52.182;7.650;2023-11-21T14:22:11;6.73;;;6.13;;
12703;SDS011;6416;52.182;7.650;2023-11-21T14:24:36;6.20;;;5.60;;
12703;SDS011;6416;52.182;7.650;2023-11-21T14:27:02;5.93;;;5.33;;
12703;SDS011;6416;52.182;7.650;2023-11-21T14:29:27;6.37;;;5.30;;
12703;SDS011;6416;52.182;7.650;2023-11-21T14:31:53;5.97;;;5.37;;
12703;SDS011;6416;52.182;7.650;2023-11-21T14:34:18;6.83;;;6.13;;
12703;SDS011;6416;52.182;7.650;2023-11-21T14:36:44;6.47;;;5.80;;
12703;SDS011;6416;52.182;7.650;2023-11-21T14:39:09;6.93;;;6.23;;
12703;SDS011;6416;52.182;7.650;2023-11-21T14:41:35;6.33;;;5.73;;
12703;SDS011;6416;52.182;7.650;2023-11-21T14:44:00;6.13;;;5.57;;
12703;SDS011;6416;52.182;7.650;2023-11-21T14:46:26;5.83;;;5.23;;
12703;SDS011;6416;52.182;7.650;2023-11-21T14:48:52;5.73;;;5.23;;
12703;SDS011;6416;52.182;7.650;2023-11-21T14:51:17;6.07;;;5.57;;
12703;SDS011;6416;52.182;7.650;2023-11-21T14:53:43;7.03;;;5.97;;
12703;SDS011;6416;52.182;7.650;2023-11-21T14:56:11;6.67;;;5.90;;
12703;SDS011;6416;52.182;7.650;2023-11-21T14:58:36;6.97;;;6.27;;
12703;SDS011;6416;52.182;7.650;2023-11-21T15:01:02;7.17;;;5.80;;